createdAt,value
2023-01-17T00:02:17.267Z,3.90
2023-01-17T00:05:02.167Z,3.93
2023-01-17T00:07:47.670Z,3.92
2023-01-17T00:10:15.718Z,3.94
2023-01-17T00:12:54.080Z,3.94
2023-01-17T00:15:25.573Z,3.93
2023-01-17T00:17:52.926Z,3.93
2023-01-17T00:20:42.469Z,3.97
2023-01-17T00:23:33.231Z,4.00
2023-01-17T00:26:05.440Z,3.99
2023-01-17T00:28:36.921Z,3.98
2023-01-17T00:31:04.793Z,4.04
2023-01-17T00:33:32.783Z,4.07
2023-01-17T00:36:00.672Z,4.08
2023-01-17T00:38:30.024Z,4.09
2023-01-17T00:41:16.716Z,4.08
2023-01-17T00:44:01.846Z,4.09
2023-01-17T00:46:46.740Z,4.13
2023-01-17T00:49:31.962Z,4.12
2023-01-17T00:52:16.829Z,4.08
2023-01-17T00:55:04.622Z,4.07
2023-01-17T00:57:49.404Z,4.07
2023-01-17T01:00:37.332Z,4.05
2023-01-17T01:03:29.949Z,4.01
2023-01-17T01:06:14.814Z,3.99
2023-01-17T01:08:59.786Z,3.95
2023-01-17T01:11:50.518Z,3.91
2023-01-17T01:14:37.139Z,3.88
2023-01-17T01:17:22.623Z,3.88
2023-01-17T01:20:09.922Z,3.90
2023-01-17T01:22:55.286Z,3.90
2023-01-17T01:25:40.462Z,3.92
2023-01-17T01:28:29.353Z,3.91
2023-01-17T01:31:14.643Z,3.91
2023-01-17T01:33:41.639Z,3.87
2023-01-17T01:36:09.602Z,3.88
2023-01-17T01:38:36.913Z,3.89
2023-01-17T01:41:03.907Z,3.90
2023-01-17T01:43:53.879Z,3.90
2023-01-17T01:46:38.535Z,3.89
2023-01-17T01:49:24.826Z,3.88
2023-01-17T01:52:05.907Z,3.93
2023-01-17T01:54:40.965Z,3.89
2023-01-17T01:57:13.931Z,3.86
2023-01-17T01:59:43.279Z,3.85
2023-01-17T02:02:09.825Z,3.83
2023-01-17T02:04:36.990Z,3.80
2023-01-17T02:07:18.891Z,3.75
2023-01-17T02:09:45.718Z,3.77
2023-01-17T02:12:16.596Z,3.76
2023-01-17T02:14:52.135Z,3.75
2023-01-17T02:17:56.279Z,3.75
2023-01-17T02:20:40.947Z,3.80
2023-01-17T02:23:49.884Z,3.77
2023-01-17T02:26:37.689Z,3.76
2023-01-17T02:29:58.773Z,3.70
2023-01-17T02:32:40.204Z,3.70
2023-01-17T02:35:28.383Z,3.67
2023-01-17T02:38:33.270Z,3.71
2023-01-17T02:41:14.538Z,3.68
2023-01-17T02:43:41.483Z,3.68
2023-01-17T02:46:09.812Z,3.67
2023-01-17T02:48:38.409Z,3.61
2023-01-17T02:51:16.075Z,3.62
2023-01-17T02:54:10.168Z,3.62
2023-01-17T02:57:05.831Z,3.60
2023-01-17T02:59:50.325Z,3.55
2023-01-17T03:02:22.435Z,3.52
2023-01-17T03:05:09.002Z,3.55
2023-01-17T03:07:37.541Z,3.51
2023-01-17T03:10:05.964Z,3.52
2023-01-17T03:12:35.588Z,3.58
2023-01-17T03:15:02.152Z,3.57
2023-01-17T03:17:32.845Z,3.59
2023-01-17T03:19:59.571Z,3.60
2023-01-17T03:22:26.055Z,3.63
2023-01-17T03:24:52.568Z,3.61
2023-01-17T03:27:19.004Z,3.60
2023-01-17T03:29:45.506Z,3.57
2023-01-17T03:32:11.977Z,3.59
2023-01-17T03:34:38.499Z,3.55
2023-01-17T03:37:04.924Z,3.52
2023-01-17T03:39:31.452Z,3.50
2023-01-17T03:41:57.943Z,3.46
2023-01-17T03:44:24.418Z,3.44
2023-01-17T03:46:50.917Z,3.43
2023-01-17T03:49:17.420Z,3.43
2023-01-17T03:51:43.919Z,3.41
2023-01-17T03:54:10.473Z,3.42
2023-01-17T03:56:37.589Z,3.43
2023-01-17T03:59:04.093Z,3.49
2023-01-17T04:01:30.749Z,3.51
2023-01-17T04:03:57.302Z,3.55
2023-01-17T04:06:23.835Z,3.56
2023-01-17T04:08:50.254Z,3.55
2023-01-17T04:11:16.731Z,3.52
2023-01-17T04:13:43.239Z,3.45
2023-01-17T04:16:16.929Z,3.47
2023-01-17T04:18:46.138Z,3.41
2023-01-17T04:21:12.607Z,3.43
2023-01-17T04:23:39.188Z,3.46
2023-01-17T04:26:05.685Z,3.43
2023-01-17T04:28:32.359Z,3.43
2023-01-17T04:31:00.043Z,3.38
2023-01-17T04:33:26.722Z,3.37
2023-01-17T04:35:54.163Z,3.35
2023-01-17T04:38:21.458Z,3.37
2023-01-17T04:40:48.697Z,3.38
2023-01-17T04:43:16.243Z,3.37
2023-01-17T04:45:43.268Z,3.35
2023-01-17T04:48:12.572Z,3.35
2023-01-17T04:50:39.948Z,3.41
2023-01-17T04:53:06.642Z,3.38
2023-01-17T04:55:33.171Z,3.36
2023-01-17T04:57:59.694Z,3.39
2023-01-17T05:00:26.212Z,3.39
2023-01-17T05:02:52.967Z,3.37
2023-01-17T05:05:19.473Z,3.35
2023-01-17T05:07:53.379Z,3.32
2023-01-17T05:10:19.845Z,3.27
2023-01-17T05:12:53.870Z,3.21
2023-01-17T05:15:20.609Z,3.19
2023-01-17T05:17:47.084Z,3.13
2023-01-17T05:20:13.546Z,3.11
2023-01-17T05:22:40.048Z,3.13
2023-01-17T05:25:08.102Z,3.16
2023-01-17T05:27:34.720Z,3.17
2023-01-17T05:30:01.208Z,3.13
2023-01-17T05:32:28.185Z,3.10
2023-01-17T05:34:54.910Z,3.11
2023-01-17T05:37:21.343Z,3.16
2023-01-17T05:39:47.820Z,3.15
2023-01-17T05:42:14.281Z,3.10
2023-01-17T05:44:40.805Z,3.09
2023-01-17T05:47:07.261Z,3.15
2023-01-17T05:49:34.300Z,3.17
2023-01-17T05:52:00.809Z,3.13
2023-01-17T05:54:29.927Z,3.08
2023-01-17T05:56:56.422Z,3.06
2023-01-17T05:59:36.181Z,3.07
2023-01-17T06:02:03.630Z,3.05
2023-01-17T06:04:30.174Z,2.97
2023-01-17T06:06:56.616Z,2.91
2023-01-17T06:09:23.167Z,2.88
2023-01-17T06:11:49.604Z,2.84
2023-01-17T06:14:16.037Z,2.83
2023-01-17T06:16:42.561Z,2.86
2023-01-17T06:19:09.551Z,2.84
2023-01-17T06:21:36.079Z,2.82
2023-01-17T06:24:04.217Z,2.85
2023-01-17T06:26:30.921Z,2.83
2023-01-17T06:28:57.497Z,2.85
2023-01-17T06:31:24.100Z,2.91
2023-01-17T06:33:50.609Z,2.89
2023-01-17T06:36:17.095Z,2.86
2023-01-17T06:38:43.578Z,2.84
2023-01-17T06:41:10.649Z,2.84
2023-01-17T06:43:37.135Z,2.80
2023-01-17T06:46:03.626Z,2.74
2023-01-17T06:48:30.095Z,2.65
2023-01-17T06:50:57.867Z,2.55
2023-01-17T06:53:25.026Z,2.47
2023-01-17T06:55:52.516Z,2.49
2023-01-17T06:58:18.997Z,2.41
2023-01-17T07:00:45.741Z,2.37
2023-01-17T07:03:24.396Z,2.26
2023-01-17T07:05:51.954Z,2.18
2023-01-17T07:08:19.847Z,2.13
2023-01-17T07:10:47.672Z,2.04
2023-01-17T07:13:14.699Z,2.10
2023-01-17T07:15:41.347Z,2.03
2023-01-17T07:18:07.895Z,2.04
2023-01-17T07:20:34.418Z,2.02
2023-01-17T07:23:00.909Z,2.06
2023-01-17T07:25:27.884Z,2.09
2023-01-17T07:27:57.469Z,2.10
2023-01-17T07:30:24.830Z,2.15
2023-01-17T07:32:53.252Z,2.16
2023-01-17T07:35:20.427Z,2.16
2023-01-17T07:37:50.871Z,2.20
2023-01-17T07:40:18.800Z,2.14
2023-01-17T07:42:45.948Z,2.21
2023-01-17T07:45:14.006Z,2.22
2023-01-17T07:47:40.612Z,2.25
2023-01-17T07:50:08.645Z,2.33
2023-01-17T07:52:35.163Z,2.36
2023-01-17T07:55:01.638Z,2.33
2023-01-17T07:57:29.068Z,2.39
2023-01-17T07:59:55.807Z,2.44
2023-01-17T08:02:23.575Z,2.48
2023-01-17T08:04:50.134Z,2.50
2023-01-17T08:07:16.827Z,2.47
2023-01-17T08:09:44.281Z,2.43
2023-01-17T08:12:10.758Z,2.46
2023-01-17T08:14:37.230Z,2.46
2023-01-17T08:17:15.913Z,2.45
2023-01-17T08:19:42.426Z,2.48
2023-01-17T08:22:09.209Z,2.52
2023-01-17T08:24:35.754Z,2.51
2023-01-17T08:27:02.271Z,2.51
2023-01-17T08:29:29.366Z,2.52
2023-01-17T08:31:55.898Z,2.54
2023-01-17T08:34:22.480Z,2.58
2023-01-17T08:36:48.956Z,2.70
2023-01-17T08:39:15.420Z,2.81
2023-01-17T08:41:41.994Z,2.85
2023-01-17T08:44:08.427Z,2.93
2023-01-17T08:46:38.118Z,2.98
2023-01-17T08:49:04.718Z,2.93
2023-01-17T08:51:32.823Z,2.95
2023-01-17T08:53:59.353Z,2.83
2023-01-17T08:56:26.897Z,2.87
2023-01-17T08:58:53.837Z,2.85
2023-01-17T09:01:23.991Z,2.84
2023-01-17T09:03:53.663Z,2.83
2023-01-17T09:06:20.353Z,2.85
2023-01-17T09:08:47.885Z,2.81
2023-01-17T09:11:16.986Z,2.89
2023-01-17T09:13:44.089Z,2.96
2023-01-17T09:16:10.677Z,2.98
2023-01-17T09:18:37.386Z,2.90
2023-01-17T09:21:15.144Z,2.80
2023-01-17T09:23:42.353Z,2.70
2023-01-17T09:26:18.668Z,2.67
2023-01-17T09:28:45.307Z,2.64
2023-01-17T09:31:11.790Z,2.66
2023-01-17T09:33:38.666Z,2.68
2023-01-17T09:36:05.486Z,2.67
2023-01-17T09:38:32.640Z,2.66
2023-01-17T09:41:01.552Z,2.63
2023-01-17T09:43:40.988Z,2.60
2023-01-17T09:46:22.473Z,2.60
2023-01-17T09:48:57.698Z,2.57
2023-01-17T09:51:24.522Z,2.55
2023-01-17T09:53:53.416Z,2.50
2023-01-17T09:56:29.534Z,2.45
2023-01-17T09:59:21.335Z,2.56
2023-01-17T10:02:28.117Z,2.85
2023-01-17T10:04:55.552Z,3.02
2023-01-17T10:07:32.399Z,3.07
2023-01-17T10:09:59.047Z,2.95
2023-01-17T10:12:38.605Z,3.04
2023-01-17T10:15:23.075Z,3.19
2023-01-17T10:18:03.823Z,3.24
2023-01-17T10:20:44.855Z,3.32
2023-01-17T10:23:46.896Z,3.40
2023-01-17T10:26:22.104Z,3.43
2023-01-17T10:28:51.621Z,3.49
2023-01-17T10:31:26.819Z,3.45
2023-01-17T10:33:55.056Z,3.50
2023-01-17T10:36:24.563Z,3.44
2023-01-17T10:39:14.568Z,3.52
2023-01-17T10:41:45.024Z,3.63
2023-01-17T10:44:33.133Z,3.64
2023-01-17T10:47:31.092Z,3.62
2023-01-17T10:49:59.380Z,3.59
2023-01-17T10:52:45.251Z,3.56
2023-01-17T10:55:16.938Z,3.49
2023-01-17T10:57:45.745Z,3.48
2023-01-17T11:00:43.976Z,3.53
2023-01-17T11:03:12.870Z,3.57
2023-01-17T11:05:43.155Z,3.45
2023-01-17T11:08:14.400Z,3.49
2023-01-17T11:10:45.517Z,3.53
2023-01-17T11:13:26.467Z,3.46
2023-01-17T11:15:59.869Z,3.43
2023-01-17T11:18:40.319Z,3.46
2023-01-17T11:21:25.857Z,3.51
2023-01-17T11:23:58.443Z,3.52
2023-01-17T11:26:31.638Z,3.56
2023-01-17T11:29:35.926Z,3.47
2023-01-17T11:32:22.109Z,3.43
2023-01-17T11:35:15.221Z,3.46
2023-01-17T11:37:49.642Z,3.46
2023-01-17T11:40:24.052Z,3.43
2023-01-17T11:43:20.395Z,3.27
2023-01-17T11:46:01.130Z,3.24
2023-01-17T11:48:37.990Z,3.25
2023-01-17T11:51:17.641Z,3.25
2023-01-17T11:53:49.120Z,3.26
2023-01-17T11:56:28.021Z,3.38
2023-01-17T11:59:12.252Z,3.50
2023-01-17T12:01:50.692Z,3.47
2023-01-17T12:04:23.164Z,3.49
2023-01-17T12:07:02.916Z,3.48
2023-01-17T12:09:52.623Z,3.45
2023-01-17T12:12:40.677Z,3.48
2023-01-17T12:15:23.233Z,3.52
2023-01-17T12:18:18.990Z,3.56
2023-01-17T12:21:10.643Z,3.60
2023-01-17T12:24:05.068Z,3.65
2023-01-17T12:26:50.137Z,3.52
2023-01-17T12:29:58.853Z,3.56
2023-01-17T12:32:39.051Z,3.50
2023-01-17T12:35:20.956Z,3.46
2023-01-17T12:38:04.248Z,3.64
2023-01-17T12:40:39.852Z,3.72
2023-01-17T12:43:18.688Z,3.71
2023-01-17T12:45:49.821Z,3.77
2023-01-17T12:48:21.355Z,3.79
2023-01-17T12:51:11.411Z,3.82
2023-01-17T12:53:45.275Z,3.87
2023-01-17T12:56:24.855Z,3.88
2023-01-17T12:59:00.984Z,3.78
2023-01-17T13:01:39.652Z,3.75
2023-01-17T13:04:11.901Z,3.69
2023-01-17T13:06:58.566Z,3.68
2023-01-17T13:09:25.883Z,3.76
2023-01-17T13:12:02.289Z,3.79
2023-01-17T13:14:29.051Z,3.72
2023-01-17T13:17:03.339Z,3.71
2023-01-17T13:19:51.883Z,3.72
2023-01-17T13:22:21.815Z,3.77
2023-01-17T13:25:12.312Z,3.84
2023-01-17T13:28:05.141Z,3.78
2023-01-17T13:30:43.386Z,3.75
2023-01-17T13:33:23.136Z,3.74
2023-01-17T13:36:18.879Z,3.85
2023-01-17T13:38:58.129Z,3.88
2023-01-17T13:41:33.471Z,3.84
2023-01-17T13:44:19.973Z,3.74
2023-01-17T13:47:12.445Z,3.71
2023-01-17T13:49:38.871Z,3.65
2023-01-17T13:52:05.440Z,3.57
2023-01-17T13:54:32.822Z,3.53
2023-01-17T13:57:40.664Z,3.52
2023-01-17T14:00:21.644Z,3.47
2023-01-17T14:02:53.303Z,3.46
2023-01-17T14:05:30.828Z,3.39
2023-01-17T14:08:03.910Z,3.37
2023-01-17T14:10:51.974Z,3.31
2023-01-17T14:13:35.626Z,3.29
2023-01-17T14:16:22.805Z,3.27
2023-01-17T14:18:49.933Z,3.22
2023-01-17T14:21:25.059Z,3.20
2023-01-17T14:23:59.800Z,3.16
2023-01-17T14:26:41.590Z,3.17
2023-01-17T14:29:42.519Z,3.13
2023-01-17T14:32:22.091Z,3.10
2023-01-17T14:34:51.411Z,3.12
2023-01-17T14:37:24.580Z,3.09
2023-01-17T14:39:51.453Z,3.13
2023-01-17T14:42:21.795Z,3.02
2023-01-17T14:44:53.192Z,2.87
2023-01-17T14:47:19.997Z,2.84
2023-01-17T14:49:46.475Z,2.80
2023-01-17T14:52:18.050Z,2.72
2023-01-17T14:54:51.642Z,2.71
2023-01-17T14:57:29.502Z,2.68
2023-01-17T15:00:19.830Z,2.66
2023-01-17T15:02:52.180Z,2.70
2023-01-17T15:05:24.559Z,2.70
2023-01-17T15:07:54.317Z,2.68
2023-01-17T15:10:45.664Z,2.65
2023-01-17T15:13:19.948Z,2.61
2023-01-17T15:15:49.471Z,2.59
2023-01-17T15:18:22.191Z,2.52
2023-01-17T15:21:04.534Z,2.51
2023-01-17T15:23:39.572Z,2.49
2023-01-17T15:26:11.370Z,2.39
2023-01-17T15:28:38.059Z,2.34
2023-01-17T15:31:17.236Z,2.26
2023-01-17T15:33:47.040Z,2.24
2023-01-17T15:36:33.058Z,2.08
2023-01-17T15:39:17.331Z,2.00
2023-01-17T15:41:44.219Z,1.96
2023-01-17T15:44:36.128Z,1.92
2023-01-17T15:47:33.305Z,1.84
2023-01-17T15:50:01.755Z,1.88
2023-01-17T15:52:29.393Z,1.97
2023-01-17T15:55:13.616Z,1.98
2023-01-17T15:57:40.267Z,1.94
2023-01-17T16:00:18.825Z,1.94
2023-01-17T16:02:55.303Z,1.94
2023-01-17T16:05:22.428Z,1.89
2023-01-17T16:08:09.475Z,1.86
2023-01-17T16:10:37.796Z,1.81
2023-01-17T16:13:06.086Z,1.78
2023-01-17T16:15:35.216Z,1.72
2023-01-17T16:18:13.937Z,1.67
2023-01-17T16:20:43.579Z,1.64
2023-01-17T16:23:10.706Z,1.61
2023-01-17T16:25:37.972Z,1.61
2023-01-17T16:28:05.509Z,1.49
2023-01-17T16:30:32.818Z,1.52
2023-01-17T16:32:59.732Z,1.50
2023-01-17T16:35:32.344Z,1.48
2023-01-17T16:38:05.898Z,1.49
2023-01-17T16:40:38.275Z,1.52
2023-01-17T16:43:04.979Z,1.47
2023-01-17T16:45:31.591Z,1.51
2023-01-17T16:47:58.135Z,1.48
2023-01-17T16:50:25.157Z,1.49
2023-01-17T16:52:52.496Z,1.48
2023-01-17T16:55:22.036Z,1.50
2023-01-17T16:57:56.053Z,1.27
2023-01-17T17:00:22.969Z,1.08
2023-01-17T17:02:51.406Z,1.06
2023-01-17T17:05:18.220Z,1.11
2023-01-17T17:07:46.287Z,1.15
2023-01-17T17:10:15.268Z,1.14
2023-01-17T17:12:42.549Z,1.10
2023-01-17T17:15:10.364Z,1.10
2023-01-17T17:17:38.228Z,1.09
2023-01-17T17:20:06.297Z,1.11
2023-01-17T17:22:33.013Z,1.08
2023-01-17T17:24:59.457Z,1.12
2023-01-17T17:27:28.680Z,1.08
2023-01-17T17:29:55.405Z,1.10
2023-01-17T17:32:21.902Z,1.07
2023-01-17T17:34:50.720Z,1.13
2023-01-17T17:37:17.775Z,1.17
2023-01-17T17:39:45.280Z,1.12
2023-01-17T17:42:12.566Z,1.08
2023-01-17T17:44:39.055Z,1.06
2023-01-17T17:47:05.583Z,0.89
2023-01-17T17:49:32.103Z,0.72
2023-01-17T17:52:06.711Z,0.61
2023-01-17T17:54:33.558Z,0.59
2023-01-17T17:57:00.159Z,0.71
2023-01-17T17:59:26.987Z,0.82
2023-01-17T18:01:53.606Z,0.83
2023-01-17T18:04:21.542Z,0.82
2023-01-17T18:06:48.346Z,0.91
2023-01-17T18:09:14.959Z,0.97
2023-01-17T18:11:43.208Z,0.94
2023-01-17T18:14:13.268Z,0.96
2023-01-17T18:16:42.080Z,0.76
2023-01-17T18:19:13.528Z,0.66
2023-01-17T18:21:43.545Z,0.71
2023-01-17T18:24:12.445Z,0.79
2023-01-17T18:26:51.061Z,0.79
2023-01-17T18:29:19.592Z,0.84
2023-01-17T18:31:47.081Z,0.58
2023-01-17T18:34:21.096Z,0.44
2023-01-17T18:36:47.573Z,0.36
2023-01-17T18:39:19.417Z,0.50
2023-01-17T18:41:46.189Z,0.64
2023-01-17T18:44:12.835Z,0.62
2023-01-17T18:46:40.310Z,0.64
2023-01-17T18:49:06.920Z,0.62
2023-01-17T18:51:34.541Z,0.58
2023-01-17T18:54:04.910Z,0.53
2023-01-17T18:56:36.523Z,0.45
2023-01-17T18:59:05.674Z,0.45
2023-01-17T19:01:35.663Z,0.43
2023-01-17T19:04:04.415Z,0.33
2023-01-17T19:06:36.963Z,0.42
2023-01-17T19:09:04.943Z,0.43
2023-01-17T19:11:31.546Z,0.44
2023-01-17T19:13:58.048Z,0.45
2023-01-17T19:16:32.807Z,0.43
2023-01-17T19:19:03.373Z,0.38
2023-01-17T19:21:31.617Z,0.31
2023-01-17T19:23:58.538Z,0.22
2023-01-17T19:26:27.374Z,0.17
2023-01-17T19:29:06.631Z,0.19
2023-01-17T19:31:39.049Z,0.16
2023-01-17T19:34:05.598Z,0.14
2023-01-17T19:36:34.419Z,0.21
2023-01-17T19:39:06.403Z,0.31
2023-01-17T19:41:35.326Z,0.35
2023-01-17T19:44:07.175Z,0.35
2023-01-17T19:46:34.560Z,0.37
2023-01-17T19:49:01.461Z,0.35
2023-01-17T19:51:28.535Z,0.29
2023-01-17T19:53:55.494Z,0.29
2023-01-17T19:56:25.977Z,0.26
2023-01-17T19:58:53.393Z,0.29
2023-01-17T20:01:23.995Z,0.34
2023-01-17T20:03:52.514Z,0.37
2023-01-17T20:06:24.722Z,0.42
2023-01-17T20:08:51.292Z,0.40
2023-01-17T20:11:23.828Z,0.35
2023-01-17T20:13:55.967Z,0.29
2023-01-17T20:16:26.824Z,0.28
2023-01-17T20:18:53.636Z,0.27
2023-01-17T20:21:32.286Z,0.28
2023-01-17T20:24:00.597Z,0.23
2023-01-17T20:26:34.587Z,0.29
2023-01-17T20:29:04.644Z,0.27
2023-01-17T20:31:32.190Z,0.24
2023-01-17T20:33:58.825Z,0.21
2023-01-17T20:36:28.888Z,0.23
2023-01-17T20:38:57.034Z,0.26
2023-01-17T20:41:34.384Z,0.12
2023-01-17T20:44:03.249Z,-0.16
2023-01-17T20:46:35.731Z,-0.32
2023-01-17T20:49:07.626Z,-0.36
2023-01-17T20:51:40.093Z,-0.24
2023-01-17T20:54:09.978Z,-0.14
2023-01-17T20:56:37.799Z,-0.07
2023-01-17T20:59:10.936Z,-0.01
2023-01-17T21:01:38.220Z,0.02
2023-01-17T21:04:05.581Z,0.00
2023-01-17T21:06:32.194Z,-0.07
2023-01-17T21:08:59.774Z,-0.05
2023-01-17T21:11:30.704Z,-0.04
2023-01-17T21:13:57.510Z,-0.06
2023-01-17T21:16:25.244Z,-0.18
2023-01-17T21:18:52.564Z,-0.12
2023-01-17T21:21:25.093Z,-0.09
2023-01-17T21:23:55.870Z,-0.03
2023-01-17T21:26:25.865Z,-0.03
2023-01-17T21:28:55.403Z,-0.05
2023-01-17T21:31:28.742Z,0.03
2023-01-17T21:34:00.605Z,0.00
2023-01-17T21:36:28.877Z,0.03
2023-01-17T21:38:57.383Z,-0.05
2023-01-17T21:41:29.262Z,-0.09
2023-01-17T21:43:59.521Z,-0.06
2023-01-17T21:46:27.493Z,-0.08
2023-01-17T21:48:54.221Z,-0.08
2023-01-17T21:51:21.780Z,-0.05
2023-01-17T21:53:48.437Z,-0.06
2023-01-17T21:56:33.531Z,-0.08
2023-01-17T21:59:03.717Z,-0.06
2023-01-17T22:01:39.675Z,-0.04
2023-01-17T22:04:06.361Z,-0.04
2023-01-17T22:06:39.300Z,-0.02
2023-01-17T22:09:06.164Z,-0.03
2023-01-17T22:11:38.713Z,-0.03
2023-01-17T22:14:11.059Z,-0.07
2023-01-17T22:16:37.555Z,-0.09
2023-01-17T22:19:09.063Z,-0.11
2023-01-17T22:21:38.608Z,-0.11
2023-01-17T22:24:06.550Z,-0.06
2023-01-17T22:26:33.210Z,-0.06
2023-01-17T22:29:00.817Z,-0.11
2023-01-17T22:31:28.393Z,-0.13
2023-01-17T22:34:03.851Z,-0.09
2023-01-17T22:36:34.031Z,-0.06
2023-01-17T22:39:00.980Z,-0.10
2023-01-17T22:41:29.895Z,-0.09
2023-01-17T22:43:58.741Z,-0.08
2023-01-17T22:46:31.057Z,-0.10
2023-01-17T22:49:02.851Z,-0.13
2023-01-17T22:51:29.726Z,-0.11
2023-01-17T22:53:58.846Z,-0.13
2023-01-17T22:56:31.916Z,-0.16
2023-01-17T22:59:01.060Z,-0.14
2023-01-17T23:01:34.718Z,-0.15
2023-01-17T23:04:07.055Z,-0.15
2023-01-17T23:06:36.997Z,-0.19
2023-01-17T23:09:15.309Z,-0.22
2023-01-17T23:11:49.691Z,-0.26
2023-01-17T23:14:21.833Z,-0.33
2023-01-17T23:17:22.095Z,-0.33
2023-01-17T23:19:51.335Z,-0.27
2023-01-17T23:22:30.606Z,-0.31
2023-01-17T23:24:58.431Z,-0.34
2023-01-17T23:27:55.147Z,-0.31
2023-01-17T23:30:26.300Z,-0.28
2023-01-17T23:32:55.278Z,-0.32
2023-01-17T23:35:33.817Z,-0.33
2023-01-17T23:38:31.697Z,-0.36
2023-01-17T23:41:25.115Z,-0.33
2023-01-17T23:43:56.859Z,-0.28
2023-01-17T23:46:25.317Z,-0.36
2023-01-17T23:48:51.992Z,-0.44
2023-01-17T23:51:18.644Z,-0.48
2023-01-17T23:53:48.850Z,-0.49
2023-01-17T23:56:19.892Z,-0.42
2023-01-17T23:58:48.314Z,-0.58
